Time;durP1;ratioP1;P1;durP2;ratioP2;P2;SDS_P1;SDS_P2;PMS_P1;PMS_P2;Temp;Humidity;BMP_temperature;BMP_pressure;BME280_temperature;BME280_humidity;BME280_pressure;Samples;Min_cycle;Max_cycle;Signal;HPM_P1;HPM_P2
2022/04/15 00:02:06;;;;;;;8.43;2.63;;;;;;;;;;5037592;28;20057;-72
2022/04/15 00:04:34;;;;;;;6.97;2.00;;;;;;;;;;5043150;28;20061;-72
2022/04/15 00:07:01;;;;;;;4.22;2.05;;;;;;;;;;5048872;28;20052;-72
2022/04/15 00:09:30;;;;;;;7.10;2.70;;;;;;;;;;5046074;28;20049;-72
2022/04/15 00:12:00;;;;;;;10.05;2.60;;;;;;;;;;5041201;28;20458;-72
2022/04/15 00:14:27;;;;;;;5.38;2.13;;;;;;;;;;5035595;28;20841;-72
2022/04/15 00:16:54;;;;;;;4.95;2.25;;;;;;;;;;5038817;28;20111;-72
2022/04/15 00:19:24;;;;;;;5.63;2.10;;;;;;;;;;5048417;28;20045;-72
2022/04/15 00:21:51;;;;;;;7.03;3.08;;;;;;;;;;5037406;28;20128;-72
2022/04/15 00:24:18;;;;;;;5.82;2.50;;;;;;;;;;5037024;28;20057;-72
2022/04/15 00:26:45;;;;;;;7.82;2.40;;;;;;;;;;5044784;28;20057;-72
2022/04/15 00:29:12;;;;;;;7.25;2.33;;;;;;;;;;5046586;28;20479;-72
2022/04/15 00:31:40;;;;;;;5.60;2.25;;;;;;;;;;5038654;28;20072;-72
2022/04/15 00:34:07;;;;;;;6.90;2.13;;;;;;;;;;5041990;28;20118;-72
2022/04/15 00:36:35;;;;;;;6.47;2.13;;;;;;;;;;5040569;28;20060;-72
2022/04/15 00:39:02;;;;;;;6.10;2.20;;;;;;;;;;5037393;28;20439;-71
2022/04/15 00:41:30;;;;;;;5.00;1.95;;;;;;;;;;5042871;28;20049;-71
2022/04/15 00:43:58;;;;;;;7.55;2.63;;;;;;;;;;5049234;28;20109;-71
2022/04/15 00:46:25;;;;;;;4.78;2.15;;;;;;;;;;5043283;28;20057;-72
2022/04/15 00:48:52;;;;;;;4.78;2.38;;;;;;;;;;5041599;28;20514;-72
2022/04/15 00:51:20;;;;;;;5.50;2.33;;;;;;;;;;5043352;28;20052;-72
2022/04/15 00:53:49;;;;;;;5.88;2.22;;;;;;;;;;5043609;28;20048;-72
2022/04/15 00:56:17;;;;;;;5.68;2.58;;;;;;;;;;5041075;28;20057;-72
2022/04/15 00:58:45;;;;;;;9.00;3.25;;;;;;;;;;5037421;28;20151;-72
2022/04/15 01:01:12;;;;;;;6.97;2.72;;;;;;;;;;5043335;28;20056;-72
2022/04/15 01:03:41;;;;;;;11.80;3.38;;;;;;;;;;5032252;28;20056;-72
2022/04/15 01:06:08;;;;;;;7.95;2.80;;;;;;;;;;5043268;28;20068;-72
2022/04/15 01:08:38;;;;;;;11.13;2.50;;;;;;;;;;5045849;28;20048;-72
2022/04/15 01:11:08;;;;;;;9.75;2.65;;;;;;;;;;5041422;28;20041;-72
2022/04/15 01:13:38;;;;;;;14.18;2.70;;;;;;;;;;5041245;28;20053;-72
2022/04/15 01:16:05;;;;;;;10.43;2.58;;;;;;;;;;5035032;28;20056;-72
2022/04/15 01:18:33;;;;;;;19.05;3.92;;;;;;;;;;5038718;28;20056;-72
2022/04/15 01:21:00;;;;;;;11.90;2.70;;;;;;;;;;5044478;28;20396;-72
2022/04/15 01:23:29;;;;;;;16.52;3.17;;;;;;;;;;5039332;28;20053;-72
2022/04/15 01:25:56;;;;;;;14.07;3.58;;;;;;;;;;5039292;28;20488;-72
2022/04/15 01:28:24;;;;;;;13.20;2.70;;;;;;;;;;5037739;28;20060;-72
2022/04/15 01:30:51;;;;;;;12.40;2.78;;;;;;;;;;5038090;28;20051;-72
2022/04/15 01:33:18;;;;;;;17.30;2.85;;;;;;;;;;5039309;28;20504;-72
2022/04/15 01:35:46;;;;;;;7.43;2.25;;;;;;;;;;5037347;28;20057;-72
2022/04/15 01:38:14;;;;;;;14.65;2.55;;;;;;;;;;5043139;28;20076;-72
2022/04/15 01:40:44;;;;;;;12.50;2.25;;;;;;;;;;5040524;28;20046;-72
2022/04/15 01:43:11;;;;;;;7.30;2.13;;;;;;;;;;5038606;28;20060;-72
2022/04/15 01:45:39;;;;;;;11.93;2.15;;;;;;;;;;5036600;28;20549;-72
2022/04/15 01:48:06;;;;;;;6.68;2.03;;;;;;;;;;5036549;28;20049;-72
2022/04/15 01:50:33;;;;;;;10.90;2.15;;;;;;;;;;5043264;28;20049;-72
2022/04/15 01:53:00;;;;;;;6.75;2.10;;;;;;;;;;5044022;28;20557;-72
2022/04/15 01:55:28;;;;;;;5.22;1.75;;;;;;;;;;5041014;28;20056;-72
2022/04/15 01:57:56;;;;;;;6.65;1.52;;;;;;;;;;5042429;28;20099;-72
2022/04/15 02:00:24;;;;;;;10.07;2.08;;;;;;;;;;5035541;28;20060;-72
2022/04/15 02:02:51;;;;;;;8.10;2.00;;;;;;;;;;5035464;28;21161;-72
2022/04/15 02:05:18;;;;;;;10.02;2.67;;;;;;;;;;5038503;28;20053;-72
2022/04/15 02:07:45;;;;;;;7.35;2.20;;;;;;;;;;5036446;28;20065;-72
2022/04/15 02:10:13;;;;;;;12.18;2.90;;;;;;;;;;5038514;28;21403;-72
2022/04/15 02:12:40;;;;;;;8.95;2.65;;;;;;;;;;5042183;28;20099;-72
2022/04/15 02:15:10;;;;;;;11.48;2.38;;;;;;;;;;5040887;28;20118;-72
2022/04/15 02:17:37;;;;;;;12.88;2.90;;;;;;;;;;5040173;28;20049;-72
2022/04/15 02:20:05;;;;;;;12.63;2.47;;;;;;;;;;5041851;28;20057;-72
2022/04/15 02:22:32;;;;;;;11.85;2.80;;;;;;;;;;5040394;28;20049;-72
2022/04/15 02:25:00;;;;;;;9.35;2.38;;;;;;;;;;5039429;28;20053;-72
2022/04/15 02:27:28;;;;;;;10.52;2.35;;;;;;;;;;5044113;28;20530;-72
2022/04/15 02:29:55;;;;;;;9.43;2.58;;;;;;;;;;5035949;28;20053;-72
2022/04/15 02:32:24;;;;;;;9.40;2.88;;;;;;;;;;5042306;28;20057;-72
2022/04/15 02:34:51;;;;;;;9.77;3.35;;;;;;;;;;5036234;28;20087;-72
2022/04/15 02:37:18;;;;;;;10.88;2.60;;;;;;;;;;5043475;28;20059;-72
2022/04/15 02:39:46;;;;;;;9.93;3.05;;;;;;;;;;5041194;28;20541;-72
2022/04/15 02:42:13;;;;;;;11.43;3.35;;;;;;;;;;5037774;28;20053;-72
2022/04/15 02:44:40;;;;;;;10.75;2.80;;;;;;;;;;5039297;28;20049;-72
2022/04/15 02:47:08;;;;;;;12.52;3.15;;;;;;;;;;5040134;28;20044;-72
2022/04/15 02:49:37;;;;;;;11.38;3.47;;;;;;;;;;5044238;28;20045;-72
2022/04/15 02:52:05;;;;;;;13.85;3.75;;;;;;;;;;5040850;28;20056;-72
2022/04/15 02:54:32;;;;;;;14.82;3.95;;;;;;;;;;5037420;28;20077;-72
2022/04/15 02:56:59;;;;;;;15.23;3.30;;;;;;;;;;5044237;28;20110;-72
2022/04/15 02:59:26;;;;;;;6.63;2.10;;;;;;;;;;5040021;28;20053;-72
2022/04/15 03:01:54;;;;;;;7.05;2.97;;;;;;;;;;5042497;28;20102;-72
2022/04/15 03:04:21;;;;;;;8.40;3.45;;;;;;;;;;5044050;28;20052;-72
2022/04/15 03:06:49;;;;;;;10.07;3.40;;;;;;;;;;5045314;28;20056;-72
2022/04/15 03:09:17;;;;;;;12.50;3.72;;;;;;;;;;5047637;28;20049;-72
2022/04/15 03:11:44;;;;;;;5.38;2.28;;;;;;;;;;5046193;28;20045;-72
2022/04/15 03:14:11;;;;;;;5.10;2.10;;;;;;;;;;5038625;28;20114;-72
2022/04/15 03:16:39;;;;;;;6.60;2.47;;;;;;;;;;5045619;28;20511;-72
2022/04/15 03:19:06;;;;;;;7.78;2.72;;;;;;;;;;5041361;28;20438;-72
2022/04/15 03:21:35;;;;;;;10.05;3.45;;;;;;;;;;5046667;28;20744;-72
2022/04/15 03:24:04;;;;;;;8.20;3.15;;;;;;;;;;5045665;28;20052;-72
2022/04/15 03:26:32;;;;;;;8.32;2.92;;;;;;;;;;5042638;28;20049;-72
2022/04/15 03:28:59;;;;;;;4.68;2.70;;;;;;;;;;5044162;28;20061;-72
2022/04/15 03:31:26;;;;;;;4.45;2.25;;;;;;;;;;5046236;28;20041;-72
2022/04/15 03:33:54;;;;;;;4.57;2.30;;;;;;;;;;5047319;28;20052;-72
2022/04/15 03:36:21;;;;;;;5.75;1.85;;;;;;;;;;5044959;28;20139;-72
2022/04/15 03:38:48;;;;;;;4.07;1.90;;;;;;;;;;5035550;28;20049;-72
2022/04/15 03:41:17;;;;;;;4.82;2.15;;;;;;;;;;5038468;28;20045;-72
2022/04/15 03:43:44;;;;;;;7.35;2.70;;;;;;;;;;5042431;28;20057;-72
2022/04/15 03:46:11;;;;;;;6.03;2.17;;;;;;;;;;5039289;28;20354;-72
2022/04/15 03:48:38;;;;;;;5.80;2.47;;;;;;;;;;5046330;28;20057;-72
2022/04/15 03:51:07;;;;;;;8.25;3.08;;;;;;;;;;5041899;28;20053;-72
2022/04/15 03:53:34;;;;;;;8.52;4.03;;;;;;;;;;5045512;28;20105;-72
2022/04/15 03:56:02;;;;;;;9.38;4.47;;;;;;;;;;5041386;28;20056;-72
2022/04/15 03:58:30;;;;;;;12.60;5.65;;;;;;;;;;5038249;28;20099;-72
2022/04/15 04:00:59;;;;;;;10.88;5.18;;;;;;;;;;5035861;28;20046;-72
2022/04/15 04:03:26;;;;;;;7.15;3.55;;;;;;;;;;5043104;28;20049;-72
2022/04/15 04:05:53;;;;;;;5.18;2.90;;;;;;;;;;5042621;28;20470;-72
2022/04/15 04:08:20;;;;;;;6.30;3.50;;;;;;;;;;5036924;28;20068;-72
2022/04/15 04:10:47;;;;;;;6.57;4.50;;;;;;;;;;5042441;28;20435;-72
2022/04/15 04:13:15;;;;;;;7.72;4.60;;;;;;;;;;5040138;28;20114;-72
2022/04/15 04:15:43;;;;;;;7.70;4.95;;;;;;;;;;5045360;28;20045;-72
2022/04/15 04:18:14;;;;;;;10.77;5.78;;;;;;;;;;5040285;28;20418;-72
2022/04/15 04:20:41;;;;;;;13.80;8.55;;;;;;;;;;5044171;28;20053;-72
2022/04/15 04:23:09;;;;;;;16.80;10.60;;;;;;;;;;5042332;28;20102;-72
2022/04/15 04:25:36;;;;;;;17.85;11.68;;;;;;;;;;5039561;28;20046;-72
2022/04/15 04:28:03;;;;;;;19.80;11.90;;;;;;;;;;5041238;28;20576;-72
2022/04/15 04:30:30;;;;;;;18.25;12.55;;;;;;;;;;5045912;28;20040;-72
2022/04/15 04:32:59;;;;;;;15.57;10.13;;;;;;;;;;5048025;28;20057;-72
2022/04/15 04:35:26;;;;;;;13.93;10.23;;;;;;;;;;5047194;28;20905;-72
2022/04/15 04:37:54;;;;;;;14.07;9.48;;;;;;;;;;5041996;28;20049;-72
2022/04/15 04:40:21;;;;;;;12.52;8.27;;;;;;;;;;5042072;28;20135;-72
2022/04/15 04:42:48;;;;;;;11.48;7.30;;;;;;;;;;5044775;28;20520;-72
2022/04/15 04:45:16;;;;;;;12.73;7.05;;;;;;;;;;5043331;28;20107;-72
2022/04/15 04:47:44;;;;;;;8.98;5.15;;;;;;;;;;5049648;28;20115;-72
2022/04/15 04:50:12;;;;;;;12.27;5.65;;;;;;;;;;5047022;28;20052;-72
2022/04/15 04:52:40;;;;;;;9.32;6.03;;;;;;;;;;5002867;28;1106623;-72
2022/04/15 04:55:08;;;;;;;7.53;4.15;;;;;;;;;;5052470;28;20049;-72
2022/04/15 04:57:37;;;;;;;7.60;4.53;;;;;;;;;;5040996;28;20045;-72
2022/04/15 05:00:04;;;;;;;6.57;4.13;;;;;;;;;;5041886;28;20403;-72
2022/04/15 05:02:32;;;;;;;7.00;4.47;;;;;;;;;;5045213;28;20037;-72
2022/04/15 05:04:59;;;;;;;7.90;3.42;;;;;;;;;;5043900;28;20447;-72
2022/04/15 05:07:27;;;;;;;4.50;3.08;;;;;;;;;;5050205;28;20045;-72
2022/04/15 05:09:55;;;;;;;4.15;2.88;;;;;;;;;;5043936;28;20080;-72
2022/04/15 05:12:22;;;;;;;5.00;2.95;;;;;;;;;;5042796;28;20140;-72
2022/04/15 05:14:49;;;;;;;5.32;3.30;;;;;;;;;;5044973;28;20045;-72
2022/04/15 05:17:16;;;;;;;4.18;2.60;;;;;;;;;;5048604;28;20053;-72
2022/04/15 05:19:44;;;;;;;2.92;2.42;;;;;;;;;;5042170;28;20049;-72
2022/04/15 05:22:11;;;;;;;5.20;2.70;;;;;;;;;;5045623;28;20059;-72
2022/04/15 05:24:40;;;;;;;4.72;2.30;;;;;;;;;;5041387;28;20051;-72
2022/04/15 05:27:07;;;;;;;3.72;2.47;;;;;;;;;;5041386;28;20404;-72
2022/04/15 05:29:35;;;;;;;4.53;2.65;;;;;;;;;;5039762;28;20478;-72
2022/04/15 05:32:03;;;;;;;6.82;2.95;;;;;;;;;;5033830;28;21435;-72
2022/04/15 05:34:30;;;;;;;9.15;3.22;;;;;;;;;;5039012;28;20049;-72
2022/04/15 05:36:57;;;;;;;5.57;2.95;;;;;;;;;;5044312;28;20156;-72
2022/04/15 05:39:24;;;;;;;6.50;3.03;;;;;;;;;;5037362;28;20091;-72
2022/04/15 05:41:53;;;;;;;4.88;1.85;;;;;;;;;;5041656;28;20048;-72
2022/04/15 05:44:20;;;;;;;4.00;1.83;;;;;;;;;;5037650;28;20072;-72
2022/04/15 05:46:47;;;;;;;3.30;1.83;;;;;;;;;;5045207;28;20052;-72
2022/04/15 05:49:16;;;;;;;2.35;1.90;;;;;;;;;;5039836;28;20057;-72
2022/04/15 05:51:45;;;;;;;3.95;1.77;;;;;;;;;;5038219;28;20103;-72
2022/04/15 05:54:13;;;;;;;5.30;2.22;;;;;;;;;;5041893;28;20753;-72
2022/04/15 05:56:40;;;;;;;3.88;1.52;;;;;;;;;;5044135;28;20470;-72
2022/04/15 05:59:09;;;;;;;3.90;1.70;;;;;;;;;;5042439;28;20049;-72
2022/04/15 06:01:36;;;;;;;2.33;1.52;;;;;;;;;;5038868;28;20052;-72
2022/04/15 06:04:03;;;;;;;4.60;1.50;;;;;;;;;;5041148;28;20049;-73
2022/04/15 06:06:30;;;;;;;3.78;1.60;;;;;;;;;;5039186;28;20504;-72
2022/04/15 06:08:57;;;;;;;1.50;1.20;;;;;;;;;;5039342;28;20079;-72
2022/04/15 06:11:25;;;;;;;2.97;1.27;;;;;;;;;;5038944;28;20062;-72
2022/04/15 06:13:52;;;;;;;3.40;1.67;;;;;;;;;;5038023;28;20144;-72
2022/04/15 06:16:21;;;;;;;1.58;1.30;;;;;;;;;;5041499;28;20053;-72
2022/04/15 06:18:49;;;;;;;3.22;1.30;;;;;;;;;;5040090;28;20056;-72
2022/04/15 06:21:16;;;;;;;2.97;1.50;;;;;;;;;;5039612;28;20049;-72
2022/04/15 06:23:44;;;;;;;3.85;2.20;;;;;;;;;;5038691;28;20064;-72
2022/04/15 06:26:11;;;;;;;6.80;2.63;;;;;;;;;;5039221;28;20049;-72
2022/04/15 06:28:38;;;;;;;5.72;3.45;;;;;;;;;;5038678;28;20115;-72
2022/04/15 06:31:05;;;;;;;6.47;3.38;;;;;;;;;;5038848;28;20049;-72
2022/04/15 06:33:34;;;;;;;7.03;3.88;;;;;;;;;;5037242;28;20060;-72
2022/04/15 06:36:01;;;;;;;7.88;4.63;;;;;;;;;;5038371;28;20072;-71
2022/04/15 06:38:29;;;;;;;8.25;4.55;;;;;;;;;;5042148;28;20411;-71
2022/04/15 06:40:56;;;;;;;7.07;4.40;;;;;;;;;;5038360;28;20061;-71
2022/04/15 06:43:23;;;;;;;6.95;4.93;;;;;;;;;;5036297;28;20057;-72
2022/04/15 06:45:50;;;;;;;7.65;4.88;;;;;;;;;;5037997;28;20060;-73
2022/04/15 06:48:17;;;;;;;8.10;4.95;;;;;;;;;;5036823;28;20048;-72
2022/04/15 06:50:46;;;;;;;8.25;5.32;;;;;;;;;;5040592;28;20595;-71
2022/04/15 06:53:13;;;;;;;8.77;6.07;;;;;;;;;;5041466;28;20049;-71
2022/04/15 06:55:40;;;;;;;11.35;6.43;;;;;;;;;;5041170;28;20064;-71
2022/04/15 06:58:08;;;;;;;9.48;6.40;;;;;;;;;;5041462;28;20130;-71
2022/04/15 07:00:36;;;;;;;8.90;6.55;;;;;;;;;;5040548;28;20053;-71
2022/04/15 07:03:04;;;;;;;10.95;6.53;;;;;;;;;;5038554;28;20056;-71
2022/04/15 07:05:31;;;;;;;13.13;7.70;;;;;;;;;;5035483;28;20068;-71
2022/04/15 07:07:59;;;;;;;13.80;7.75;;;;;;;;;;5036919;28;20052;-71
2022/04/15 07:10:27;;;;;;;11.57;8.05;;;;;;;;;;5036924;28;20056;-71
2022/04/15 07:12:54;;;;;;;14.38;8.02;;;;;;;;;;5038920;28;20041;-71
2022/04/15 07:15:23;;;;;;;12.52;7.50;;;;;;;;;;5039364;28;20111;-71
2022/04/15 07:17:50;;;;;;;14.15;7.85;;;;;;;;;;5039805;28;20049;-71
2022/04/15 07:20:18;;;;;;;14.52;8.25;;;;;;;;;;5037450;28;20328;-71
2022/04/15 07:22:45;;;;;;;12.98;7.70;;;;;;;;;;5040616;28;20045;-71
2022/04/15 07:25:14;;;;;;;13.65;8.05;;;;;;;;;;5035340;28;20103;-70
2022/04/15 07:27:41;;;;;;;16.55;8.70;;;;;;;;;;5038672;28;20499;-71
2022/04/15 07:30:09;;;;;;;15.23;8.20;;;;;;;;;;5038866;28;20180;-71
2022/04/15 07:32:36;;;;;;;13.85;8.30;;;;;;;;;;5041600;28;20052;-70
2022/04/15 07:35:03;;;;;;;14.07;8.55;;;;;;;;;;5043015;28;20049;-71
2022/04/15 07:37:30;;;;;;;15.32;8.82;;;;;;;;;;5048667;28;20651;-70
2022/04/15 07:39:58;;;;;;;17.63;8.63;;;;;;;;;;5039719;28;20063;-70
2022/04/15 07:42:26;;;;;;;16.00;8.75;;;;;;;;;;5036878;28;20060;-71
2022/04/15 07:44:53;;;;;;;17.23;9.02;;;;;;;;;;5041735;28;20093;-71
2022/04/15 07:47:21;;;;;;;17.83;8.40;;;;;;;;;;5041002;28;20061;-71
2022/04/15 07:49:50;;;;;;;13.48;8.50;;;;;;;;;;5036915;28;20407;-71
2022/04/15 07:52:17;;;;;;;14.98;7.97;;;;;;;;;;5038308;28;20045;-71
2022/04/15 07:54:46;;;;;;;16.77;8.60;;;;;;;;;;5041427;28;20076;-71
2022/04/15 07:57:13;;;;;;;14.45;7.88;;;;;;;;;;5042742;28;20140;-71
2022/04/15 07:59:42;;;;;;;18.27;8.20;;;;;;;;;;5038080;28;20135;-71
2022/04/15 08:02:09;;;;;;;23.00;8.23;;;;;;;;;;5039639;28;20045;-71
2022/04/15 08:04:41;;;;;;;16.30;7.70;;;;;;;;;;5038608;28;20055;-71
2022/04/15 08:07:08;;;;;;;17.10;6.85;;;;;;;;;;5041421;28;20510;-71
2022/04/15 08:09:36;;;;;;;13.32;6.68;;;;;;;;;;5044830;28;20057;-71
2022/04/15 08:12:03;;;;;;;13.32;7.57;;;;;;;;;;5039091;28;20056;-71
2022/04/15 08:14:30;;;;;;;13.77;6.45;;;;;;;;;;5045127;28;20500;-71
2022/04/15 08:16:59;;;;;;;13.32;6.32;;;;;;;;;;5050236;28;20055;-71
2022/04/15 08:19:26;;;;;;;11.38;5.45;;;;;;;;;;5041947;28;20544;-71
2022/04/15 08:21:53;;;;;;;11.88;6.00;;;;;;;;;;5039194;28;20105;-71
2022/04/15 08:24:21;;;;;;;13.65;5.85;;;;;;;;;;5044807;28;20054;-71
2022/04/15 08:26:49;;;;;;;10.23;5.80;;;;;;;;;;5045453;28;20057;-71
2022/04/15 08:29:17;;;;;;;9.95;4.43;;;;;;;;;;5047571;28;20049;-71
2022/04/15 08:31:44;;;;;;;10.75;4.63;;;;;;;;;;5041752;28;20056;-71
2022/04/15 08:34:12;;;;;;;14.52;4.70;;;;;;;;;;5040988;28;20670;-71
2022/04/15 08:36:39;;;;;;;9.80;5.32;;;;;;;;;;5043524;28;20052;-71
2022/04/15 08:39:07;;;;;;;10.75;5.07;;;;;;;;;;5039966;28;20478;-71
2022/04/15 08:41:37;;;;;;;11.50;4.85;;;;;;;;;;5043551;28;20045;-71
2022/04/15 08:44:05;;;;;;;11.15;4.47;;;;;;;;;;5044595;28;20063;-71
2022/04/15 08:46:33;;;;;;;14.70;4.78;;;;;;;;;;5040368;28;20109;-71
2022/04/15 08:49:02;;;;;;;10.27;4.43;;;;;;;;;;5038979;28;20508;-71
2022/04/15 08:51:31;;;;;;;9.13;4.07;;;;;;;;;;5052243;28;20055;-71
2022/04/15 08:53:58;;;;;;;9.20;4.32;;;;;;;;;;5039580;28;20515;-71
2022/04/15 08:56:25;;;;;;;8.80;3.72;;;;;;;;;;5048622;28;20452;-71
2022/04/15 08:58:53;;;;;;;10.88;4.63;;;;;;;;;;5044083;28;20045;-71
2022/04/15 09:01:20;;;;;;;11.23;4.40;;;;;;;;;;5049817;28;20083;-71
2022/04/15 09:03:47;;;;;;;10.95;4.45;;;;;;;;;;5044642;28;20048;-71
2022/04/15 09:06:15;;;;;;;12.05;4.40;;;;;;;;;;5038576;28;20389;-71
2022/04/15 09:08:57;;;;;;;15.85;5.05;;;;;;;;;;5041181;28;20048;-71
2022/04/15 09:11:30;;;;;;;12.85;4.45;;;;;;;;;;5043434;28;20049;-71
2022/04/15 09:13:57;;;;;;;;;;;;;;;;;;5044520;28;20538;-71
2022/04/15 09:16:25;;;;;;;10.80;4.68;;;;;;;;;;5040375;28;19940;-71
2022/04/15 09:18:53;;;;;;;10.02;4.22;;;;;;;;;;5041988;28;20103;-71
2022/04/15 09:21:21;;;;;;;10.95;4.28;;;;;;;;;;5041877;28;20711;-71
2022/04/15 09:23:49;;;;;;;16.00;4.38;;;;;;;;;;5045024;28;20072;-71
2022/04/15 09:26:16;;;;;;;8.27;4.00;;;;;;;;;;5040737;28;20057;-71
2022/04/15 09:28:45;;;;;;;11.80;4.40;;;;;;;;;;5043549;28;20053;-72
2022/04/15 09:31:16;;;;;;;11.32;4.53;;;;;;;;;;5041319;28;20056;-71
2022/04/15 09:33:56;;;;;;;13.52;4.05;;;;;;;;;;5042041;28;20053;-71
2022/04/15 09:36:24;;;;;;;6.70;3.60;;;;;;;;;;5039392;28;20083;-71
2022/04/15 09:38:56;;;;;;;8.05;3.95;;;;;;;;;;5044004;28;20053;-71
2022/04/15 09:41:24;;;;;;;8.10;3.70;;;;;;;;;;5038007;28;20779;-71
2022/04/15 09:43:54;;;;;;;8.48;3.05;;;;;;;;;;5038623;28;20045;-71
2022/04/15 09:46:22;;;;;;;7.32;3.25;;;;;;;;;;5041181;28;20107;-71
2022/04/15 09:49:02;;;;;;;9.32;3.38;;;;;;;;;;5045353;28;20098;-71
2022/04/15 09:51:30;;;;;;;9.25;2.92;;;;;;;;;;5045754;28;20087;-71
2022/04/15 09:54:01;;;;;;;5.18;3.00;;;;;;;;;;5044915;28;20146;-71
2022/04/15 09:56:28;;;;;;;6.05;2.88;;;;;;;;;;5046457;28;20052;-71
2022/04/15 09:59:01;;;;;;;9.38;3.25;;;;;;;;;;5052438;28;20057;-71
2022/04/15 10:01:30;;;;;;;7.70;3.53;;;;;;;;;;5048484;28;20049;-71
2022/04/15 10:03:57;;;;;;;7.68;3.25;;;;;;;;;;5049828;28;20060;-71
2022/04/15 10:06:26;;;;;;;6.38;3.38;;;;;;;;;;5048807;28;20465;-71
2022/04/15 10:08:53;;;;;;;6.43;2.90;;;;;;;;;;5042807;28;20053;-71
2022/04/15 10:11:21;;;;;;;4.68;2.70;;;;;;;;;;5041736;28;20052;-71
2022/04/15 10:13:48;;;;;;;6.10;3.00;;;;;;;;;;5042821;28;20136;-71
2022/04/15 10:16:17;;;;;;;4.38;2.80;;;;;;;;;;5044169;28;20079;-71
2022/04/15 10:18:46;;;;;;;7.75;3.38;;;;;;;;;;5049958;28;20365;-71
2022/04/15 10:21:14;;;;;;;7.20;2.80;;;;;;;;;;5048067;28;20505;-71
2022/04/15 10:23:41;;;;;;;13.35;3.38;;;;;;;;;;5057238;28;20403;-71
2022/04/15 10:26:09;;;;;;;8.15;2.90;;;;;;;;;;5048526;28;20535;-71
2022/04/15 10:28:40;;;;;;;7.47;3.35;;;;;;;;;;5045680;28;20056;-71
2022/04/15 10:31:08;;;;;;;3.72;2.75;;;;;;;;;;5045740;28;20085;-71
2022/04/15 10:33:39;;;;;;;5.82;2.88;;;;;;;;;;5044981;28;20041;-71
2022/04/15 10:36:12;;;;;;;7.70;3.10;;;;;;;;;;5045606;28;20052;-71
2022/04/15 10:38:59;;;;;;;4.43;2.53;;;;;;;;;;5050070;28;20103;-71
2022/04/15 10:41:26;;;;;;;4.05;2.55;;;;;;;;;;5047550;28;20111;-71
2022/04/15 10:43:56;;;;;;;6.38;2.83;;;;;;;;;;5041455;28;20053;-71
2022/04/15 10:46:30;;;;;;;6.88;3.17;;;;;;;;;;5050610;28;20056;-71
2022/04/15 10:48:57;;;;;;;;;;;;;;;;;;5047010;28;20301;-71
2022/04/15 10:51:27;;;;;;;6.40;3.10;;;;;;;;;;5044714;28;19931;-71
2022/04/15 10:53:56;;;;;;;6.10;3.30;;;;;;;;;;5046757;28;20056;-71
2022/04/15 10:56:24;;;;;;;6.10;3.13;;;;;;;;;;5051512;28;20052;-71
2022/04/15 11:01:52;;;;;;;10.63;3.53;;;;;;;;;;5046570;28;20401;-71
2022/04/15 11:04:23;;;;;;;6.30;3.10;;;;;;;;;;5039973;28;20140;-71
2022/04/15 11:06:52;;;;;;;9.05;3.60;;;;;;;;;;5039580;28;20107;-71
2022/04/15 11:09:22;;;;;;;8.07;3.28;;;;;;;;;;5041843;28;20052;-71
2022/04/15 11:11:52;;;;;;;8.93;4.05;;;;;;;;;;5035334;28;20088;-71
2022/04/15 11:14:19;;;;;;;7.72;3.78;;;;;;;;;;5045485;28;20080;-71
2022/04/15 11:16:48;;;;;;;6.53;3.30;;;;;;;;;;5046947;28;20057;-71
2022/04/15 11:19:19;;;;;;;8.40;3.80;;;;;;;;;;5047763;28;20049;-71
2022/04/15 11:21:53;;;;;;;10.75;4.13;;;;;;;;;;5042315;28;20060;-71
2022/04/15 11:24:26;;;;;;;11.40;4.28;;;;;;;;;;5045078;28;20048;-71
2022/04/15 11:26:58;;;;;;;10.18;4.13;;;;;;;;;;5044669;28;20056;-71
2022/04/15 11:29:29;;;;;;;9.07;4.65;;;;;;;;;;5052656;28;20075;-71
2022/04/15 11:31:59;;;;;;;9.48;4.55;;;;;;;;;;5047214;28;20134;-71
2022/04/15 11:34:26;;;;;;;10.45;3.80;;;;;;;;;;5053461;28;20373;-71
2022/04/15 11:36:56;;;;;;;7.65;3.47;;;;;;;;;;5047652;28;20601;-71
2022/04/15 11:39:24;;;;;;;8.02;3.78;;;;;;;;;;5049728;28;20057;-71
2022/04/15 11:41:53;;;;;;;8.35;3.45;;;;;;;;;;5045220;28;20516;-71
2022/04/15 11:44:21;;;;;;;6.78;3.35;;;;;;;;;;5042787;28;20069;-71
2022/04/15 11:46:49;;;;;;;8.15;3.78;;;;;;;;;;5040824;28;20061;-71
2022/04/15 11:49:18;;;;;;;8.50;3.40;;;;;;;;;;5047952;28;20109;-71
2022/04/15 11:51:46;;;;;;;9.00;3.78;;;;;;;;;;5045387;28;20068;-72
2022/04/15 11:54:13;;;;;;;7.95;4.00;;;;;;;;;;5043844;28;20495;-72
2022/04/15 11:56:42;;;;;;;6.10;3.40;;;;;;;;;;5049173;28;20040;-72
2022/04/15 11:59:11;;;;;;;10.95;3.80;;;;;;;;;;5045113;28;20060;-72
2022/04/15 12:01:39;;;;;;;9.95;3.80;;;;;;;;;;5057443;28;20060;-72
2022/04/15 12:04:06;;;;;;;10.25;4.10;;;;;;;;;;5054136;28;20052;-72
2022/04/15 12:06:40;;;;;;;11.73;4.30;;;;;;;;;;5049560;28;20057;-72
2022/04/15 12:09:07;;;;;;;9.35;4.47;;;;;;;;;;5050436;28;20106;-72
2022/04/15 12:11:34;;;;;;;7.57;4.35;;;;;;;;;;5047676;28;20053;-72
2022/04/15 12:14:02;;;;;;;8.63;4.03;;;;;;;;;;5044440;28;20045;-72
2022/04/15 12:16:33;;;;;;;8.68;4.30;;;;;;;;;;5047524;28;20048;-72
2022/04/15 12:19:01;;;;;;;8.18;4.57;;;;;;;;;;5051476;28;20069;-72
2022/04/15 12:21:29;;;;;;;7.43;3.75;;;;;;;;;;5048875;28;20048;-72
2022/04/15 12:24:02;;;;;;;9.60;4.53;;;;;;;;;;5051559;28;20044;-72
2022/04/15 12:26:30;;;;;;;10.05;4.13;;;;;;;;;;5048591;28;20049;-72
2022/04/15 12:31:49;;;;;;;8.68;4.63;;;;;;;;;;5046725;28;20075;-72
2022/04/15 12:34:17;;;;;;;8.00;4.07;;;;;;;;;;5044584;28;20064;-72
2022/04/15 12:36:45;;;;;;;6.07;3.92;;;;;;;;;;5046472;28;20056;-72
2022/04/15 12:39:13;;;;;;;9.05;4.93;;;;;;;;;;5054156;28;20048;-72
2022/04/15 12:41:42;;;;;;;8.25;4.63;;;;;;;;;;5047831;28;20411;-72
2022/04/15 12:44:16;;;;;;;5.30;3.83;;;;;;;;;;5044210;28;20045;-72
2022/04/15 12:46:44;;;;;;;7.78;4.10;;;;;;;;;;5050623;28;20064;-72
2022/04/15 12:49:27;;;;;;;8.50;3.78;;;;;;;;;;5049556;28;20080;-72
2022/04/15 12:51:58;;;;;;;8.15;4.03;;;;;;;;;;5041473;28;20061;-72
2022/04/15 12:54:25;;;;;;;8.00;4.40;;;;;;;;;;5048178;28;20052;-72
2022/04/15 12:56:56;;;;;;;7.68;4.28;;;;;;;;;;5050730;28;20052;-72
2022/04/15 12:59:24;;;;;;;11.25;4.68;;;;;;;;;;5046527;28;20053;-72
2022/04/15 13:01:51;;;;;;;8.82;4.10;;;;;;;;;;5056280;28;20115;-72
2022/04/15 13:04:19;;;;;;;7.50;4.03;;;;;;;;;;5044945;28;20049;-72
2022/04/15 13:06:47;;;;;;;7.63;4.15;;;;;;;;;;5045560;28;20064;-72
2022/04/15 13:09:20;;;;;;;7.18;4.28;;;;;;;;;;5045155;28;20060;-72
2022/04/15 13:11:47;;;;;;;7.38;4.05;;;;;;;;;;5038063;28;20049;-72
2022/04/15 13:14:14;;;;;;;7.60;3.67;;;;;;;;;;5045474;28;20079;-72
2022/04/15 13:16:41;;;;;;;6.63;3.30;;;;;;;;;;5047052;28;20553;-72
2022/04/15 13:19:09;;;;;;;8.23;4.22;;;;;;;;;;5042392;28;20056;-72
2022/04/15 13:21:36;;;;;;;8.35;3.78;;;;;;;;;;5043138;28;20115;-72
2022/04/15 13:24:05;;;;;;;7.57;3.65;;;;;;;;;;5044340;28;20057;-72
2022/04/15 13:26:32;;;;;;;6.68;4.00;;;;;;;;;;5042738;28;20071;-72
2022/04/15 13:28:59;;;;;;;9.90;4.30;;;;;;;;;;5046665;28;20068;-72
2022/04/15 13:31:26;;;;;;;6.60;4.20;;;;;;;;;;5045745;28;20099;-72
2022/04/15 13:33:54;;;;;;;10.18;4.63;;;;;;;;;;5047768;28;20053;-72
2022/04/15 13:36:21;;;;;;;10.07;4.47;;;;;;;;;;5046585;28;20060;-72
2022/04/15 13:38:48;;;;;;;22.65;4.88;;;;;;;;;;5041449;28;20504;-72
2022/04/15 13:41:17;;;;;;;8.93;4.50;;;;;;;;;;5042161;28;20381;-72
2022/04/15 13:43:45;;;;;;;9.23;4.35;;;;;;;;;;5048535;28;20059;-72
2022/04/15 13:46:12;;;;;;;8.45;4.82;;;;;;;;;;5037961;28;20539;-72
2022/04/15 13:48:41;;;;;;;8.93;4.70;;;;;;;;;;5047903;28;20057;-72
2022/04/15 13:51:08;;;;;;;12.77;4.38;;;;;;;;;;5046146;28;20075;-72
2022/04/15 13:56:41;;;;;;;11.00;4.63;;;;;;;;;;5043913;28;20048;-72
2022/04/15 13:59:10;;;;;;;11.73;4.70;;;;;;;;;;5038110;28;20424;-72
2022/04/15 14:01:39;;;;;;;9.77;4.60;;;;;;;;;;5041606;28;20494;-72
2022/04/15 14:04:09;;;;;;;9.70;4.90;;;;;;;;;;5044385;28;20558;-72
2022/04/15 14:06:36;;;;;;;8.38;4.68;;;;;;;;;;5040594;28;20086;-72
2022/04/15 14:09:04;;;;;;;12.30;4.63;;;;;;;;;;5041458;28;20134;-72
2022/04/15 14:11:33;;;;;;;9.82;4.85;;;;;;;;;;5043613;28;20049;-72
2022/04/15 14:14:01;;;;;;;9.43;4.43;;;;;;;;;;5038551;28;20558;-72
2022/04/15 14:16:29;;;;;;;7.55;4.25;;;;;;;;;;5044670;28;20057;-72
2022/04/15 14:18:56;;;;;;;7.70;3.72;;;;;;;;;;5045192;28;20057;-72
2022/04/15 14:21:23;;;;;;;7.63;3.85;;;;;;;;;;5046987;28;20059;-72
2022/04/15 14:23:51;;;;;;;12.13;4.50;;;;;;;;;;5044968;28;20845;-72
2022/04/15 14:26:18;;;;;;;10.93;4.57;;;;;;;;;;5044662;28;20057;-72
2022/04/15 14:28:47;;;;;;;11.57;4.38;;;;;;;;;;5051502;28;20067;-73
2022/04/15 14:31:14;;;;;;;7.60;4.30;;;;;;;;;;5053557;28;20060;-73
2022/04/15 14:33:42;;;;;;;11.13;4.38;;;;;;;;;;5046201;28;20041;-72
2022/04/15 14:36:10;;;;;;;9.88;4.32;;;;;;;;;;5048303;28;20053;-73
2022/04/15 14:38:38;;;;;;;12.15;4.60;;;;;;;;;;5045983;28;20050;-73
2022/04/15 14:41:06;;;;;;;8.50;4.20;;;;;;;;;;5040281;28;20060;-73
2022/04/15 14:43:33;;;;;;;10.30;4.68;;;;;;;;;;5050919;28;20060;-73
2022/04/15 14:46:02;;;;;;;10.52;4.38;;;;;;;;;;5039994;28;20053;-73
2022/04/15 14:48:29;;;;;;;35.63;4.45;;;;;;;;;;5036752;28;20123;-73
2022/04/15 14:50:58;;;;;;;23.20;4.75;;;;;;;;;;5049004;28;20080;-73
2022/04/15 14:53:25;;;;;;;290.88;14.25;;;;;;;;;;5039026;28;20140;-73